Time;durP1;ratioP1;P1;durP2;ratioP2;P2;SDS_P1;SDS_P2;PMS_P1;PMS_P2;Temp;Humidity;BMP_temperature;BMP_pressure;BME280_temperature;BME280_humidity;BME280_pressure;Samples;Min_cycle;Max_cycle;Signal;HPM_P1;HPM_P2
2022/05/05 00:00:51;;;;;;;;;;;;;;;-143.90;100.00;55115.19;2087206;28;20370;-66
2022/05/05 00:02:12;;;;;;;;;;;;;;;-143.90;100.00;55095.34;2088594;28;19951;-66
2022/05/05 00:03:32;;;;;;;;;;;;;;;-143.90;100.00;55135.03;2088123;28;19920;-66
2022/05/05 00:04:53;;;;;;;;;;;;;;;-143.90;100.00;55125.13;2087504;28;19997;-66
2022/05/05 00:06:14;;;;;;;;;;;;;;;-143.90;100.00;55103.28;2087815;28;19920;-64
2022/05/05 00:07:34;;;;;;;;;;;;;;;-143.90;100.00;55143.00;2086613;28;19922;-66
2022/05/05 00:08:55;;;;;;;;;;;;;;;-143.90;100.00;55117.19;2080015;28;19955;-66
2022/05/05 00:14:35;;;;;;;;;;;;;;;-143.90;100.00;55111.22;2086753;28;20014;-66
2022/05/05 00:15:25;;;;;;;;;;;;;;;-143.90;100.00;55117.19;2074347;28;19921;-66
2022/05/05 00:16:45;;;;;;;;;;;;;;;-143.90;100.00;55127.09;2079676;28;19921;-66
2022/05/05 00:18:06;;;;;;;;;;;;;;;-143.90;100.00;55143.00;2084609;28;19924;-66
2022/05/05 00:19:28;;;;;;;;;;;;;;;-143.90;100.00;55091.38;2087881;28;19969;-66
2022/05/05 00:20:48;;;;;;;;;;;;;;;-143.90;100.00;55087.41;2087303;28;19920;-66
2022/05/05 00:22:09;;;;;;;;;;;;;;;-143.90;100.00;55139.03;2084264;28;19921;-66
2022/05/05 00:23:30;;;;;;;;;;;;;;;-143.90;100.00;55131.06;2088535;28;19921;-66
2022/05/05 00:24:51;;;;;;;;;;;;;;;-143.90;100.00;55131.06;2089049;28;19928;-66
2022/05/05 00:26:12;;;;;;;;;;;;;;;-143.90;100.00;55135.03;2086653;28;20791;-66
2022/05/05 00:27:33;;;;;;;;;;;;;;;-143.90;100.00;55146.97;2087913;28;19920;-66
2022/05/05 00:28:54;;;;;;;;;;;;;;;-143.90;100.00;55115.19;2086282;28;19921;-66
2022/05/05 00:30:15;;;;;;;;;;;;;;;-143.90;100.00;55119.16;2087461;28;19964;-66
2022/05/05 00:31:35;;;;;;;;;;;;;;;-143.90;100.00;55121.16;2089582;28;19921;-66
2022/05/05 00:32:56;;;;;;;;;;;;;;;-143.90;100.00;55143.00;2090407;28;19985;-66
2022/05/05 00:34:17;;;;;;;;;;;;;;;-143.90;100.00;55150.94;2089553;28;19926;-66
2022/05/05 00:35:37;;;;;;;;;;;;;;;-143.90;100.00;55129.09;2089604;28;19928;-66
2022/05/05 00:36:58;;;;;;;;;;;;;;;-143.90;100.00;55119.16;2088105;28;19926;-66
2022/05/05 00:38:19;;;;;;;;;;;;;;;-143.90;100.00;55115.19;2087230;28;19932;-66
2022/05/05 00:39:39;;;;;;;;;;;;;;;-143.90;100.00;55139.03;2088661;28;19932;-66
2022/05/05 00:41:00;;;;;;;;;;;;;;;-143.90;100.00;55141.00;2089040;28;19920;-66
2022/05/05 00:42:20;;;;;;;;;;;;;;;-143.90;100.00;55129.09;2090887;28;19921;-66
2022/05/05 00:43:41;;;;;;;;;;;;;;;-143.90;100.00;55111.22;2089518;28;20015;-66
2022/05/05 00:45:02;;;;;;;;;;;;;;;-143.90;100.00;55127.09;2087770;28;20371;-66
2022/05/05 00:46:23;;;;;;;;;;;;;;;-143.90;100.00;55123.13;2089690;28;19931;-66
2022/05/05 00:47:44;;;;;;;;;;;;;;;-143.90;100.00;55135.03;2089351;28;19943;-66
2022/05/05 00:49:04;;;;;;;;;;;;;;;-143.90;100.00;55164.84;2089787;28;20027;-66
2022/05/05 00:50:25;;;;;;;;;;;;;;;-143.90;100.00;55143.00;2089389;28;20540;-66
2022/05/05 00:51:46;;;;;;;;;;;;;;;-143.90;100.00;55139.03;2079020;28;19929;-66
2022/05/05 00:53:07;;;;;;;;;;;;;;;-143.90;100.00;55146.97;2086551;28;20698;-66
2022/05/05 00:54:27;;;;;;;;;;;;;;;-143.90;100.00;55119.16;2089943;28;20029;-66
2022/05/05 00:55:48;;;;;;;;;;;;;;;-143.90;100.00;55127.09;2087432;28;19924;-66
2022/05/05 00:57:09;;;;;;;;;;;;;;;-143.90;100.00;55139.03;2084746;28;19924;-66
2022/05/05 00:58:30;;;;;;;;;;;;;;;-143.90;100.00;55109.22;2088614;28;19955;-66
2022/05/05 00:59:51;;;;;;;;;;;;;;;-143.90;100.00;55131.06;2090719;28;19955;-66
2022/05/05 01:01:14;;;;;;;;;;;;;;;-143.90;100.00;55111.22;2090590;28;20062;-66
2022/05/05 01:02:35;;;;;;;;;;;;;;;-143.90;100.00;55091.38;2089192;28;19920;-66
2022/05/05 01:03:56;;;;;;;;;;;;;;;-143.90;100.00;55113.22;2088181;28;20039;-66
2022/05/05 01:05:16;;;;;;;;;;;;;;;-143.90;100.00;55101.28;2079617;28;19931;-66
2022/05/05 01:06:37;;;;;;;;;;;;;;;-143.90;100.00;55131.06;2086261;28;19921;-66
2022/05/05 01:07:58;;;;;;;;;;;;;;;-143.90;100.00;55133.06;2090430;28;19942;-66
2022/05/05 01:09:19;;;;;;;;;;;;;;;-143.90;100.00;55131.06;2088859;28;19925;-65
2022/05/05 01:10:39;;;;;;;;;;;;;;;-143.90;100.00;55150.94;2089252;28;19924;-66
2022/05/05 01:12:02;;;;;;;;;;;;;;;-143.90;100.00;55137.03;2088871;28;19921;-66
2022/05/05 01:13:25;;;;;;;;;;;;;;;-143.90;100.00;55131.06;2090241;28;20015;-66
2022/05/05 01:14:46;;;;;;;;;;;;;;;-143.90;100.00;55160.84;2087430;28;19924;-66
2022/05/05 01:16:06;;;;;;;;;;;;;;;-143.90;100.00;55133.06;2089492;28;20471;-66
2022/05/05 01:17:27;;;;;;;;;;;;;;;-143.90;100.00;55156.88;2090479;28;19928;-66
2022/05/05 01:18:51;;;;;;;;;;;;;;;-143.90;100.00;55139.03;2089441;28;20081;-66
2022/05/05 01:20:12;;;;;;;;;;;;;;;-143.90;100.00;55111.22;2089283;28;19959;-66
2022/05/05 01:21:33;;;;;;;;;;;;;;;-143.90;100.00;55107.25;2087769;28;19979;-66
2022/05/05 01:22:54;;;;;;;;;;;;;;;-143.90;100.00;55164.84;2091060;28;19928;-66
2022/05/05 01:24:14;;;;;;;;;;;;;;;-143.90;100.00;55146.97;2088760;28;19928;-66
2022/05/05 01:28:54;;;;;;;;;;;;;;;-143.90;100.00;55150.94;2088952;28;20028;-66
2022/05/05 01:30:15;;;;;;;;;;;;;;;-143.90;100.00;55095.34;2086633;28;20494;-66
2022/05/05 01:31:36;;;;;;;;;;;;;;;-143.90;100.00;55091.38;2079863;28;19929;-66
2022/05/05 01:32:56;;;;;;;;;;;;;;;-143.90;100.00;55127.09;2087064;28;19981;-66
2022/05/05 01:34:18;;;;;;;;;;;;;;;-143.90;100.00;55137.03;2088298;28;19920;-66
2022/05/05 01:35:39;;;;;;;;;;;;;;;-143.90;100.00;55131.06;2084602;28;19932;-66
2022/05/05 01:36:59;;;;;;;;;;;;;;;-143.90;100.00;55121.16;2079601;28;19959;-66
2022/05/05 01:38:21;;;;;;;;;;;;;;;-143.90;100.00;55127.09;2078113;28;19925;-66
2022/05/05 01:39:42;;;;;;;;;;;;;;;-143.90;100.00;55115.19;2082936;28;19921;-66
2022/05/05 01:41:04;;;;;;;;;;;;;;;-143.90;100.00;55091.38;2080754;28;19920;-66
2022/05/05 01:42:25;;;;;;;;;;;;;;;-143.90;100.00;55154.91;2080454;28;19924;-66
2022/05/05 01:43:45;;;;;;;;;;;;;;;-143.90;100.00;55115.19;2081279;28;19921;-66
2022/05/05 01:45:06;;;;;;;;;;;;;;;-143.90;100.00;55146.97;2080283;28;19944;-66
2022/05/05 01:46:27;;;;;;;;;;;;;;;-143.90;100.00;55143.00;2079589;28;19921;-66
2022/05/05 01:47:48;;;;;;;;;;;;;;;-143.90;100.00;55135.03;2080385;28;19979;-66
2022/05/05 01:49:08;;;;;;;;;;;;;;;-143.90;100.00;55119.16;2079907;28;19935;-66
2022/05/05 01:50:32;;;;;;;;;;;;;;;-143.90;100.00;55162.84;2078945;28;20486;-66
2022/05/05 01:51:53;;;;;;;;;;;;;;;-143.90;100.00;55139.03;2073735;28;20538;-66
2022/05/05 01:53:16;;;;;;;;;;;;;;;-143.90;100.00;55143.00;2079614;28;19920;-66
2022/05/05 01:54:38;;;;;;;;;;;;;;;-143.90;100.00;55095.34;2078051;28;19921;-66
2022/05/05 01:55:59;;;;;;;;;;;;;;;-143.90;100.00;55129.09;2081501;28;19921;-66
2022/05/05 01:57:19;;;;;;;;;;;;;;;-143.90;100.00;55146.97;2080146;28;19920;-66
2022/05/05 01:58:44;;;;;;;;;;;;;;;-143.90;100.00;55115.19;2080911;28;19920;-66
2022/05/05 02:00:05;;;;;;;;;;;;;;;-143.90;100.00;55107.25;2081316;28;19964;-66
2022/05/05 02:01:35;;;;;;;;;;;;;;;-143.90;100.00;55133.06;2081175;28;19921;-66
2022/05/05 02:02:56;;;;;;;;;;;;;;;-143.90;100.00;55111.22;2081515;28;19925;-66
2022/05/05 02:04:16;;;;;;;;;;;;;;;-143.90;100.00;55123.13;2081960;28;19921;-66
2022/05/05 02:05:37;;;;;;;;;;;;;;;-143.90;100.00;55099.31;2071691;28;19920;-66
2022/05/05 02:06:58;;;;;;;;;;;;;;;-143.90;100.00;55111.22;2079399;28;19921;-66
2022/05/05 02:08:19;;;;;;;;;;;;;;;-143.90;100.00;55099.31;2081852;28;20376;-66
2022/05/05 02:09:40;;;;;;;;;;;;;;;-143.90;100.00;55135.03;2079120;28;20055;-66
2022/05/05 02:11:01;;;;;;;;;;;;;;;-143.90;100.00;55107.25;2080624;28;20463;-66
2022/05/05 02:12:21;;;;;;;;;;;;;;;-143.90;100.00;55115.19;2081953;28;20069;-66
2022/05/05 02:13:42;;;;;;;;;;;;;;;-143.90;100.00;55117.19;2081384;28;19925;-66
2022/05/05 02:15:06;;;;;;;;;;;;;;;-143.90;100.00;55107.25;2080584;28;20015;-66
2022/05/05 02:16:27;;;;;;;;;;;;;;;-143.90;100.00;55111.22;2081528;28;19921;-66
2022/05/05 02:17:48;;;;;;;;;;;;;;;-143.90;100.00;55103.28;2079950;28;20546;-67
2022/05/05 02:19:09;;;;;;;;;;;;;;;-143.90;100.00;55154.91;2079414;28;19955;-66
2022/05/05 02:20:30;;;;;;;;;;;;;;;-143.90;100.00;55071.50;2081432;28;19921;-66
2022/05/05 02:21:50;;;;;;;;;;;;;;;-143.90;100.00;55139.03;2080551;28;19936;-66
2022/05/05 02:23:11;;;;;;;;;;;;;;;-143.90;100.00;55095.34;2081495;28;19925;-66
2022/05/05 02:24:32;;;;;;;;;;;;;;;-143.90;100.00;55119.16;2081395;28;20551;-66
2022/05/05 02:25:53;;;;;;;;;;;;;;;-143.90;100.00;55131.06;2082225;28;20300;-66
2022/05/05 02:27:13;;;;;;;;;;;;;;;-143.90;100.00;55143.00;2079900;28;19921;-66
2022/05/05 02:28:34;;;;;;;;;;;;;;;-143.90;100.00;55146.97;2079942;28;19935;-66
2022/05/05 02:29:55;;;;;;;;;;;;;;;-143.90;100.00;55139.03;2081383;28;19921;-66
2022/05/05 02:31:15;;;;;;;;;;;;;;;-143.90;100.00;55121.16;2078932;28;19921;-66
2022/05/05 02:32:37;;;;;;;;;;;;;;;-143.90;100.00;55135.03;2080669;28;20817;-66
2022/05/05 02:33:57;;;;;;;;;;;;;;;-143.90;100.00;55071.50;2078373;28;20042;-66
2022/05/05 02:35:18;;;;;;;;;;;;;;;-143.90;100.00;55131.06;2081800;28;19928;-66
2022/05/05 02:39:58;;;;;;;;;;;;;;;-143.90;100.00;55135.03;2087916;28;20166;-66
2022/05/05 02:41:18;;;;;;;;;;;;;;;-143.90;100.00;55121.16;2087754;28;19931;-66
2022/05/05 02:42:39;;;;;;;;;;;;;;;-143.90;100.00;55123.13;2088325;28;19924;-66
2022/05/05 02:44:00;;;;;;;;;;;;;;;-143.90;100.00;55158.88;2087788;28;19977;-66
2022/05/05 02:45:20;;;;;;;;;;;;;;;-143.90;100.00;55107.25;2088007;28;19924;-66
2022/05/05 02:46:41;;;;;;;;;;;;;;;-143.90;100.00;55139.03;2088041;28;20394;-66
2022/05/05 02:48:01;;;;;;;;;;;;;;;-143.90;100.00;55119.16;2088743;28;19936;-65
2022/05/05 02:49:22;;;;;;;;;;;;;;;-143.90;100.00;55123.13;2090908;28;20030;-66
2022/05/05 02:50:43;;;;;;;;;;;;;;;-143.90;100.00;55113.22;2088042;28;19932;-65
2022/05/05 02:52:04;;;;;;;;;;;;;;;-143.90;100.00;55131.06;2088489;28;19944;-66
2022/05/05 02:55:05;;;;;;;;;;;;;;;-143.90;100.00;55095.34;2088677;28;19931;-66
2022/05/05 02:56:25;;;;;;;;;;;;;;;-143.90;100.00;55091.38;2087612;28;19925;-66
2022/05/05 02:57:46;;;;;;;;;;;;;;;-143.90;100.00;55091.38;2089006;28;19935;-66
2022/05/05 02:59:07;;;;;;;;;;;;;;;-143.90;100.00;55119.16;2089106;28;19968;-66
2022/05/05 03:00:28;;;;;;;;;;;;;;;-143.90;100.00;55144.97;2087784;28;19920;-66
2022/05/05 03:01:48;;;;;;;;;;;;;;;-143.90;100.00;55113.22;2089060;28;20006;-66
2022/05/05 03:03:09;;;;;;;;;;;;;;;-143.90;100.00;55148.94;2088246;28;19928;-66
2022/05/05 03:04:29;;;;;;;;;;;;;;;-143.90;100.00;55111.22;2088779;28;19921;-66
2022/05/05 03:05:50;;;;;;;;;;;;;;;-143.90;100.00;55131.06;2090227;28;20018;-66
2022/05/05 03:07:11;;;;;;;;;;;;;;;-143.90;100.00;55119.16;2087815;28;19925;-66
2022/05/05 03:08:31;;;;;;;;;;;;;;;-143.90;100.00;55146.97;2088632;28;19924;-66
2022/05/05 03:09:52;;;;;;;;;;;;;;;-143.90;100.00;55115.19;2091185;28;19925;-66
2022/05/05 03:11:13;;;;;;;;;;;;;;;-143.90;100.00;55095.34;2088422;28;19956;-66
2022/05/05 03:12:33;;;;;;;;;;;;;;;-143.90;100.00;55135.03;2088257;28;19920;-66
2022/05/05 03:13:54;;;;;;;;;;;;;;;-143.90;100.00;55113.22;2087537;28;19924;-66
2022/05/05 03:15:15;;;;;;;;;;;;;;;-143.90;100.00;55103.28;2087244;28;19921;-66
2022/05/05 03:16:35;;;;;;;;;;;;;;;-143.90;100.00;55095.34;2079646;28;20366;-66
2022/05/05 03:17:56;;;;;;;;;;;;;;;-143.90;100.00;55131.06;2086795;28;20371;-66
2022/05/05 03:19:16;;;;;;;;;;;;;;;-143.90;100.00;55127.09;2088781;28;19977;-66
2022/05/05 03:20:37;;;;;;;;;;;;;;;-143.90;100.00;55093.34;2087941;28;19966;-66
2022/05/05 03:21:58;;;;;;;;;;;;;;;-143.90;100.00;55131.06;2088364;28;20034;-66
2022/05/05 03:23:18;;;;;;;;;;;;;;;-143.90;100.00;55121.16;2087322;28;20363;-66
2022/05/05 03:24:39;;;;;;;;;;;;;;;-143.90;100.00;55139.03;2087025;28;19975;-66
2022/05/05 03:26:00;;;;;;;;;;;;;;;-143.90;100.00;55139.03;2088555;28;20494;-66
2022/05/05 03:27:21;;;;;;;;;;;;;;;-143.90;100.00;55146.97;2085944;28;19927;-66
2022/05/05 03:28:41;;;;;;;;;;;;;;;-143.90;100.00;55119.16;2086243;28;19924;-66
2022/05/05 03:30:03;;;;;;;;;;;;;;;-143.90;100.00;55107.25;2087640;28;20396;-65
2022/05/05 03:31:24;;;;;;;;;;;;;;;-143.90;100.00;55087.41;2087666;28;20371;-66
2022/05/05 03:32:44;;;;;;;;;;;;;;;-143.90;100.00;55091.38;2089123;28;20407;-66
2022/05/05 03:34:06;;;;;;;;;;;;;;;-143.90;100.00;55087.41;2087126;28;19920;-66
2022/05/05 03:35:26;;;;;;;;;;;;;;;-143.90;100.00;55087.41;2088221;28;19925;-66
2022/05/05 03:36:47;;;;;;;;;;;;;;;-143.90;100.00;55166.81;2088303;28;19927;-66
2022/05/05 03:38:07;;;;;;;;;;;;;;;-143.90;100.00;55115.19;2089339;28;19924;-65
2022/05/05 03:39:28;;;;;;;;;;;;;;;-143.90;100.00;55095.34;2088367;28;19920;-66
2022/05/05 03:40:50;;;;;;;;;;;;;;;-143.90;100.00;55095.34;2089690;28;19960;-66
2022/05/05 03:42:10;;;;;;;;;;;;;;;-143.90;100.00;55107.25;2087539;28;20284;-66
2022/05/05 03:43:31;;;;;;;;;;;;;;;-143.90;100.00;55129.09;2088760;28;20550;-66
2022/05/05 03:44:52;;;;;;;;;;;;;;;-143.90;100.00;55107.25;2087875;28;19920;-66
2022/05/05 03:46:13;;;;;;;;;;;;;;;-143.90;100.00;55071.50;2088117;28;19974;-66
2022/05/05 03:47:33;;;;;;;;;;;;;;;-143.90;100.00;55111.22;2090093;28;20400;-67
2022/05/05 03:48:54;;;;;;;;;;;;;;;-143.90;100.00;55095.34;2088975;28;19928;-66
2022/05/05 03:50:15;;;;;;;;;;;;;;;-143.90;100.00;55123.13;2088452;28;19972;-66
2022/05/05 03:51:36;;;;;;;;;;;;;;;-143.90;100.00;55123.13;2088788;28;19967;-66
2022/05/05 03:52:56;;;;;;;;;;;;;;;-143.90;100.00;55099.31;2089020;28;19920;-66
2022/05/05 03:54:17;;;;;;;;;;;;;;;-143.90;100.00;55127.09;2088804;28;20019;-66
2022/05/05 03:55:38;;;;;;;;;;;;;;;-143.90;100.00;55095.34;2087708;28;19974;-66
2022/05/05 03:56:59;;;;;;;;;;;;;;;-143.90;100.00;55129.09;2089287;28;19932;-66
2022/05/05 03:58:19;;;;;;;;;;;;;;;-143.90;100.00;55095.34;2088323;28;19932;-66
2022/05/05 03:59:40;;;;;;;;;;;;;;;-143.90;100.00;55131.06;2088067;28;19924;-66
2022/05/05 04:01:00;;;;;;;;;;;;;;;-143.90;100.00;55141.00;2088605;28;19954;-66
2022/05/05 04:02:21;;;;;;;;;;;;;;;-143.90;100.00;55117.19;2087868;28;20372;-66
2022/05/05 04:03:43;;;;;;;;;;;;;;;-143.90;100.00;55109.22;2088474;28;20016;-66
2022/05/05 04:05:04;;;;;;;;;;;;;;;-143.90;100.00;55135.03;2090587;28;19943;-66
2022/05/05 04:06:24;;;;;;;;;;;;;;;-143.90;100.00;55115.19;2090756;28;19927;-66
2022/05/05 04:07:45;;;;;;;;;;;;;;;-143.90;100.00;55121.16;2088959;28;19921;-66
2022/05/05 04:09:06;;;;;;;;;;;;;;;-143.90;100.00;55123.13;2088592;28;19965;-66
2022/05/05 04:10:27;;;;;;;;;;;;;;;-143.90;100.00;55131.06;2090444;28;20367;-66
2022/05/05 04:11:47;;;;;;;;;;;;;;;-143.90;100.00;55131.06;2087925;28;20030;-66
2022/05/05 04:13:08;;;;;;;;;;;;;;;-143.90;100.00;55099.31;2089102;28;20411;-66
2022/05/05 04:14:28;;;;;;;;;;;;;;;-143.90;100.00;55146.97;2087975;28;20014;-66
2022/05/05 04:15:49;;;;;;;;;;;;;;;-143.90;100.00;55125.13;2089139;28;19917;-66
2022/05/05 04:17:10;;;;;;;;;;;;;;;-143.90;100.00;55091.38;2088585;28;19960;-66
2022/05/05 04:18:31;;;;;;;;;;;;;;;-143.90;100.00;55095.34;2088822;28;19924;-66
2022/05/05 04:19:52;;;;;;;;;;;;;;;-143.90;100.00;55079.44;2089918;28;19920;-66
2022/05/05 04:21:13;;;;;;;;;;;;;;;-143.90;100.00;55143.00;2087779;28;19939;-66
2022/05/05 04:22:34;;;;;;;;;;;;;;;-143.90;100.00;55087.41;2090482;28;19921;-66
2022/05/05 04:23:55;;;;;;;;;;;;;;;-143.90;100.00;55069.53;2090148;28;19923;-66
2022/05/05 04:25:18;;;;;;;;;;;;;;;-143.90;100.00;55115.19;2089868;28;19927;-66
2022/05/05 04:26:39;;;;;;;;;;;;;;;-143.90;100.00;55123.13;2088386;28;19917;-66
2022/05/05 04:27:59;;;;;;;;;;;;;;;-143.90;100.00;55097.31;2088725;28;19973;-66
2022/05/05 04:29:20;;;;;;;;;;;;;;;-143.90;100.00;55079.44;2090379;28;19925;-66
2022/05/05 04:30:41;;;;;;;;;;;;;;;-143.90;100.00;55115.19;2088939;28;19964;-66
2022/05/05 04:32:02;;;;;;;;;;;;;;;-143.90;100.00;55101.28;2088614;28;19975;-66
2022/05/05 04:33:22;;;;;;;;;;;;;;;-143.90;100.00;55087.41;2087206;28;20410;-66
2022/05/05 04:34:43;;;;;;;;;;;;;;;-143.90;100.00;55107.25;2089628;28;20023;-66
2022/05/05 04:36:04;;;;;;;;;;;;;;;-143.90;100.00;55089.38;2089445;28;20222;-66
2022/05/05 04:37:24;;;;;;;;;;;;;;;-143.90;100.00;55099.31;2088774;28;19924;-66
2022/05/05 04:38:45;;;;;;;;;;;;;;;-143.90;100.00;55099.31;2081473;28;19921;-66
2022/05/05 04:40:07;;;;;;;;;;;;;;;-143.90;100.00;55125.13;2084642;28;19924;-66
2022/05/05 04:41:28;;;;;;;;;;;;;;;-143.90;100.00;55097.31;2081479;28;19959;-66
2022/05/05 04:42:49;;;;;;;;;;;;;;;-143.90;100.00;55160.84;2086462;28;19932;-66
2022/05/05 04:44:10;;;;;;;;;;;;;;;-143.90;100.00;55099.31;2088968;28;20131;-66
2022/05/05 04:45:31;;;;;;;;;;;;;;;-143.90;100.00;55083.41;2086186;28;19968;-66
2022/05/05 04:46:51;;;;;;;;;;;;;;;-143.90;100.00;55073.50;2087852;28;19921;-66
2022/05/05 04:48:12;;;;;;;;;;;;;;;-143.90;100.00;55143.00;2080591;28;20049;-66
2022/05/05 04:49:32;;;;;;;;;;;;;;;-143.90;100.00;55107.25;2073524;28;19921;-66
2022/05/05 04:50:53;;;;;;;;;;;;;;;-143.90;100.00;55115.19;2082172;28;20300;-66
2022/05/05 04:52:14;;;;;;;;;;;;;;;-143.90;100.00;55103.28;2089701;28;19921;-66
2022/05/05 04:53:34;;;;;;;;;;;;;;;-143.90;100.00;55123.13;2087699;28;19923;-66
2022/05/05 04:54:55;;;;;;;;;;;;;;;-143.90;100.00;55125.13;2083043;28;19925;-66
2022/05/05 04:56:16;;;;;;;;;;;;;;;-143.90;100.00;55135.03;2088324;28;19921;-66
2022/05/05 04:57:38;;;;;;;;;;;;;;;-143.90;100.00;55095.34;2087582;28;19928;-66
2022/05/05 04:58:59;;;;;;;;;;;;;;;-143.90;100.00;55057.59;2089030;28;19917;-64
2022/05/05 05:00:20;;;;;;;;;;;;;;;-143.90;100.00;55109.22;2088617;28;20038;-65
2022/05/05 05:01:40;;;;;;;;;;;;;;;-143.90;100.00;55135.03;2088901;28;19917;-64
2022/05/05 05:03:01;;;;;;;;;;;;;;;-143.90;100.00;55099.31;2089587;28;19928;-64
2022/05/05 05:04:22;;;;;;;;;;;;;;;-143.90;100.00;55107.25;2090275;28;19924;-64
2022/05/05 05:05:42;;;;;;;;;;;;;;;-143.90;100.00;55099.31;2088205;28;19975;-64
2022/05/05 05:07:03;;;;;;;;;;;;;;;-143.90;100.00;55093.34;2090095;28;19924;-64
2022/05/05 05:08:24;;;;;;;;;;;;;;;-143.90;100.00;55073.50;2089230;28;19932;-64
2022/05/05 05:09:44;;;;;;;;;;;;;;;-143.90;100.00;55083.41;2087570;28;19928;-64
2022/05/05 05:11:05;;;;;;;;;;;;;;;-143.90;100.00;55095.34;2090596;28;20712;-64
2022/05/05 05:12:26;;;;;;;;;;;;;;;-143.90;100.00;55087.41;2090141;28;19920;-64
2022/05/05 05:13:47;;;;;;;;;;;;;;;-143.90;100.00;55111.22;2089452;28;20012;-64
2022/05/05 05:15:08;;;;;;;;;;;;;;;-143.90;100.00;55099.31;2087781;28;19932;-64
2022/05/05 05:16:29;;;;;;;;;;;;;;;-143.90;100.00;55131.06;2079297;28;19928;-64
2022/05/05 05:17:49;;;;;;;;;;;;;;;-143.90;100.00;55073.50;2079245;28;19960;-64
2022/05/05 05:19:10;;;;;;;;;;;;;;;-143.90;100.00;55111.22;2085092;28;20817;-64
2022/05/05 05:20:31;;;;;;;;;;;;;;;-143.90;100.00;55079.44;2081311;28;19917;-64
2022/05/05 05:21:51;;;;;;;;;;;;;;;-143.90;100.00;55095.34;2085684;28;19956;-64
2022/05/05 05:23:12;;;;;;;;;;;;;;;-143.90;100.00;55079.44;2089076;28;19986;-64
2022/05/05 05:24:33;;;;;;;;;;;;;;;-143.90;100.00;55079.44;2088821;28;19920;-64
2022/05/05 05:25:54;;;;;;;;;;;;;;;-143.90;100.00;55071.50;2088581;28;19952;-64
2022/05/05 05:27:14;;;;;;;;;;;;;;;-143.90;100.00;55059.59;2088848;28;19920;-64
2022/05/05 05:28:35;;;;;;;;;;;;;;;-143.90;100.00;55059.59;2089300;28;20015;-64
2022/05/05 05:29:56;;;;;;;;;;;;;;;-143.90;100.00;55023.84;2089543;28;19928;-64
2022/05/05 05:31:17;;;;;;;;;;;;;;;-143.90;100.00;55065.56;2089317;28;19921;-64
2022/05/05 05:32:37;;;;;;;;;;;;;;;-143.90;100.00;55107.25;2089608;28;20047;-64
2022/05/05 05:33:59;;;;;;;;;;;;;;;-143.90;100.00;55055.63;2089912;28;19920;-64
2022/05/05 05:35:20;;;;;;;;;;;;;;;-143.90;100.00;55055.63;2088535;28;20479;-64
2022/05/05 05:36:41;;;;;;;;;;;;;;;-143.90;100.00;55055.63;2081868;28;20007;-64
2022/05/05 05:38:02;;;;;;;;;;;;;;;-143.90;99.13;55065.56;2089643;28;19930;-64
2022/05/05 05:39:22;;;;;;;;;;;;;;;-143.90;96.44;55051.66;2088922;28;19928;-64
2022/05/05 05:40:43;;;;;;;;;;;;;;;-143.90;95.26;55031.78;2088879;28;19995;-67
2022/05/05 05:42:04;;;;;;;;;;;;;;;-143.90;96.57;55051.66;2089589;28;19951;-64
2022/05/05 05:43:25;;;;;;;;;;;;;;;-143.90;97.12;55067.53;2088498;28;19928;-64
2022/05/05 05:44:45;;;;;;;;;;;;;;;-143.90;96.67;55047.69;2086773;28;19955;-64
2022/05/05 05:46:06;;;;;;;;;;;;;;;-143.90;95.13;55057.59;2089454;28;19920;-64
2022/05/05 05:47:27;;;;;;;;;;;;;;;-143.90;95.86;55063.56;2087309;28;19920;-64
2022/05/05 05:48:47;;;;;;;;;;;;;;;-143.90;95.54;55065.56;2089255;28;19917;-64
2022/05/05 05:50:08;;;;;;;;;;;;;;;-143.90;98.47;55057.59;2088461;28;20027;-64
2022/05/05 05:51:29;;;;;;;;;;;;;;;-143.90;99.94;55039.75;2090128;28;19956;-65
2022/05/05 05:52:49;;;;;;;;;;;;;;;-143.90;97.13;55055.63;2090067;28;19920;-64
2022/05/05 05:54:10;;;;;;;;;;;;;;;-143.90;96.91;55039.75;2089657;28;20003;-64
2022/05/05 05:55:30;;;;;;;;;;;;;;;-143.90;99.29;55063.56;2089280;28;19927;-64
2022/05/05 05:56:51;;;;;;;;;;;;;;;-143.90;99.44;55033.78;2088175;28;20352;-64
2022/05/05 05:58:12;;;;;;;;;;;;;;;-143.90;100.00;55055.63;2088480;28;19972;-64
2022/05/05 05:59:32;;;;;;;;;;;;;;;-143.90;100.00;55099.31;2081927;28;19950;-64
2022/05/05 06:00:53;;;;;;;;;;;;;;;-143.90;100.00;55047.69;2083716;28;19921;-64
2022/05/05 06:03:56;;;;;;;;;;;;;;;-143.90;100.00;55043.72;2087712;28;19921;-64
2022/05/05 06:05:17;;;;;;;;;;;;;;;-143.90;100.00;55071.50;2088789;28;19920;-64
2022/05/05 06:06:38;;;;;;;;;;;;;;;-143.90;100.00;55063.56;2088849;28;20033;-64
2022/05/05 06:08:02;;;;;;;;;;;;;;;-143.90;100.00;55065.56;2088176;28;19917;-65
2022/05/05 06:09:24;;;;;;;;;;;;;;;-143.90;100.00;55089.38;2089277;28;19951;-64
2022/05/05 06:10:45;;;;;;;;;;;;;;;-143.90;100.00;55063.56;2089176;28;19920;-64
2022/05/05 06:12:06;;;;;;;;;;;;;;;-143.90;100.00;55079.44;2088905;28;20019;-64
2022/05/05 06:13:26;;;;;;;;;;;;;;;-143.90;100.00;55099.31;2082152;28;19971;-64
2022/05/05 06:14:47;;;;;;;;;;;;;;;-143.90;100.00;55091.38;2083589;28;19936;-64
2022/05/05 06:16:09;;;;;;;;;;;;;;;-143.90;100.00;55079.44;2089563;28;19998;-64
2022/05/05 06:17:30;;;;;;;;;;;;;;;-143.90;100.00;55093.34;2087886;28;19920;-64
2022/05/05 06:18:51;;;;;;;;;;;;;;;-143.90;100.00;55067.53;2089553;28;19970;-64
2022/05/05 06:20:11;;;;;;;;;;;;;;;-143.90;100.00;55087.41;2089407;28;19931;-64
2022/05/05 06:21:32;;;;;;;;;;;;;;;-143.90;100.00;55065.56;2089858;28;19928;-64
2022/05/05 06:22:54;;;;;;;;;;;;;;;-143.90;100.00;55043.72;2088356;28;20418;-64
2022/05/05 06:24:14;;;;;;;;;;;;;;;-143.90;100.00;55043.72;2088764;28;19939;-64
2022/05/05 06:25:35;;;;;;;;;;;;;;;-143.90;100.00;55071.50;2089102;28;19920;-64
2022/05/05 06:26:56;;;;;;;;;;;;;;;-143.90;100.00;55071.50;2090029;28;20384;-64
2022/05/05 06:28:16;;;;;;;;;;;;;;;-143.90;99.42;55067.53;2089064;28;19924;-64
2022/05/05 06:29:37;;;;;;;;;;;;;;;-143.90;98.76;55063.56;2081562;28;19970;-64
2022/05/05 06:30:58;;;;;;;;;;;;;;;-143.90;97.82;55075.47;2086288;28;19920;-64
2022/05/05 06:32:18;;;;;;;;;;;;;;;-143.90;99.10;55047.69;2088636;28;19924;-64
2022/05/05 06:33:39;;;;;;;;;;;;;;;-143.90;98.29;55069.53;2089563;28;19975;-64
2022/05/05 06:34:59;;;;;;;;;;;;;;;-143.90;98.96;55025.84;2088037;28;19927;-64
2022/05/05 06:36:20;;;;;;;;;;;;;;;-143.90;97.47;55031.78;2088714;28;20346;-64
2022/05/05 06:37:41;;;;;;;;;;;;;;;-143.90;94.25;55007.97;2088479;28;20007;-64
2022/05/05 06:39:02;;;;;;;;;;;;;;;-143.90;93.53;55061.59;2087939;28;19927;-65
2022/05/05 06:40:24;;;;;;;;;;;;;;;-143.90;92.86;55021.88;2088953;28;19927;-65
2022/05/05 06:41:45;;;;;;;;;;;;;;;-143.90;93.53;55059.59;2088406;28;19927;-64
2022/05/05 06:43:06;;;;;;;;;;;;;;;-143.90;92.51;55031.78;2089439;28;19931;-64
2022/05/05 06:44:27;;;;;;;;;;;;;;;-143.90;91.63;55035.78;2088470;28;19920;-64
2022/05/05 06:45:47;;;;;;;;;;;;;;;-143.90;90.77;55031.78;2088849;28;19920;-64
2022/05/05 06:47:08;;;;;;;;;;;;;;;-143.90;90.32;55063.56;2088940;28;20464;-64
2022/05/05 06:48:29;;;;;;;;;;;;;;;-143.90;88.38;55063.56;2090221;28;19921;-64
2022/05/05 06:49:50;;;;;;;;;;;;;;;-143.90;87.35;55015.91;2087773;28;19917;-64
2022/05/05 06:51:11;;;;;;;;;;;;;;;-143.90;86.97;55045.69;2086694;28;20327;-64
2022/05/05 06:52:31;;;;;;;;;;;;;;;-143.90;83.93;55027.81;2080581;28;19925;-62
2022/05/05 06:53:52;;;;;;;;;;;;;;;-143.90;82.68;55015.91;2085735;28;19932;-62
2022/05/05 06:55:13;;;;;;;;;;;;;;;-143.90;84.24;55063.56;2088923;28;19946;-63
2022/05/05 06:56:33;;;;;;;;;;;;;;;-143.90;84.53;55067.53;2087378;28;20276;-63
2022/05/05 06:57:54;;;;;;;;;;;;;;;-143.90;85.11;55015.91;2089174;28;19924;-63
2022/05/05 06:59:14;;;;;;;;;;;;;;;-143.90;84.45;55071.50;2089812;27;19963;-62